createdAt,value
2022-12-14T00:02:20.589Z,100490.91
2022-12-14T00:04:46.940Z,100489.44
2022-12-14T00:07:13.259Z,100481.53
2022-12-14T00:09:39.639Z,100480.81
2022-12-14T00:12:06.310Z,100477.94
2022-12-14T00:14:32.636Z,100483.69
2022-12-14T00:16:58.949Z,100471.50
2022-12-14T00:19:25.270Z,100467.88
2022-12-14T00:21:51.602Z,100465.00
2022-12-14T00:24:17.953Z,100462.03
2022-12-14T00:26:44.273Z,100459.09
2022-12-14T00:29:17.615Z,100454.75
2022-12-14T00:31:43.954Z,100464.84
2022-12-14T00:34:15.239Z,100454.00
2022-12-14T00:36:44.257Z,100450.38
2022-12-14T00:39:13.151Z,100458.34
2022-12-14T00:41:39.480Z,100453.34
2022-12-14T00:44:05.805Z,100458.34
2022-12-14T00:46:32.172Z,100453.34
2022-12-14T00:48:58.666Z,100454.75
2022-12-14T00:51:24.979Z,100454.66
2022-12-14T00:53:51.296Z,100461.88
2022-12-14T00:56:17.614Z,100464.72
2022-12-14T00:58:44.423Z,100463.22
2022-12-14T01:01:14.866Z,100462.50
2022-12-14T01:03:41.428Z,100456.06
2022-12-14T01:06:12.968Z,100453.19
2022-12-14T01:08:39.278Z,100458.19
2022-12-14T01:11:06.403Z,100453.19
2022-12-14T01:13:32.768Z,100440.94
2022-12-14T01:16:04.427Z,100440.19
2022-12-14T01:18:32.993Z,100435.09
2022-12-14T01:21:07.622Z,100437.25
2022-12-14T01:23:33.968Z,100439.38
2022-12-14T01:26:00.310Z,100435.03
2022-12-14T01:28:26.638Z,100438.66
2022-12-14T01:30:53.117Z,100434.28
2022-12-14T01:33:19.438Z,100438.66
2022-12-14T01:35:45.782Z,100438.66
2022-12-14T01:38:12.092Z,100438.66
2022-12-14T01:40:38.941Z,100433.56
2022-12-14T01:43:10.377Z,100429.94
2022-12-14T01:45:36.705Z,100430.66
2022-12-14T01:48:03.022Z,100434.88
2022-12-14T01:50:30.340Z,100429.78
2022-12-14T01:52:58.141Z,100428.41
2022-12-14T01:55:34.170Z,100426.25
2022-12-14T01:58:05.623Z,100428.41
2022-12-14T02:00:31.961Z,100425.56
2022-12-14T02:02:59.881Z,100424.84
2022-12-14T02:05:26.323Z,100419.81
2022-12-14T02:07:52.919Z,100419.81
2022-12-14T02:10:19.243Z,100416.88
2022-12-14T02:12:47.086Z,100416.06
2022-12-14T02:15:13.458Z,100423.94
2022-12-14T02:17:41.278Z,100415.31
2022-12-14T02:20:07.781Z,100416.72
2022-12-14T02:22:42.194Z,100418.19
2022-12-14T02:25:15.632Z,100419.59
2022-12-14T02:27:47.850Z,100410.97
2022-12-14T02:30:18.372Z,100418.19
2022-12-14T02:33:03.316Z,100416.00
2022-12-14T02:35:35.233Z,100411.63
2022-12-14T02:38:06.458Z,100413.78
2022-12-14T02:40:48.627Z,100412.97
2022-12-14T02:43:18.646Z,100405.72
2022-12-14T02:45:53.947Z,100404.97
2022-12-14T02:48:24.644Z,100402.09
2022-12-14T02:51:02.919Z,100402.09
2022-12-14T02:53:31.343Z,100403.59
2022-12-14T02:56:01.766Z,100403.59
2022-12-14T02:58:38.382Z,100403.66
2022-12-14T03:01:04.832Z,100405.06
2022-12-14T03:03:31.416Z,100397.84
2022-12-14T03:06:26.991Z,100389.13
2022-12-14T03:08:54.241Z,100387.63
2022-12-14T03:11:21.242Z,100387.63
2022-12-14T03:13:53.414Z,100386.19
2022-12-14T03:16:20.863Z,100391.94
2022-12-14T03:18:50.035Z,100386.19
2022-12-14T03:21:16.917Z,100386.91
2022-12-14T03:23:43.310Z,100376.13
2022-12-14T03:26:13.952Z,100376.13
2022-12-14T03:28:43.156Z,100374.66
2022-12-14T03:31:10.930Z,100367.44
2022-12-14T03:33:37.272Z,100359.56
2022-12-14T03:36:04.953Z,100355.19
2022-12-14T03:38:33.198Z,100364.47
2022-12-14T03:41:05.561Z,100354.34
2022-12-14T03:43:35.550Z,100363.75
2022-12-14T03:46:04.283Z,100358.59
2022-12-14T03:48:41.004Z,100354.34
2022-12-14T03:51:14.285Z,100352.97
2022-12-14T03:53:56.767Z,100347.22
2022-12-14T03:56:33.915Z,100345.19
2022-12-14T03:59:07.719Z,100340.16
2022-12-14T04:02:00.332Z,100340.16
2022-12-14T04:04:42.009Z,100340.88
2022-12-14T04:07:10.431Z,100335.78
2022-12-14T04:09:39.690Z,100330.09
2022-12-14T04:12:24.681Z,100328.66
2022-12-14T04:15:14.197Z,100326.44
2022-12-14T04:17:59.240Z,100330.72
2022-12-14T04:20:26.951Z,100328.47
2022-12-14T04:22:55.331Z,100319.75
2022-12-14T04:25:45.211Z,100324.03
2022-12-14T04:28:55.950Z,100323.28
2022-12-14T04:31:23.160Z,100321.81
2022-12-14T04:33:55.759Z,100322.47
2022-12-14T04:36:27.518Z,100312.47
2022-12-14T04:38:55.558Z,100319.69
2022-12-14T04:41:23.143Z,100312.47
2022-12-14T04:43:49.475Z,100300.28
2022-12-14T04:46:16.801Z,100300.34
2022-12-14T04:48:45.107Z,100297.47
2022-12-14T04:51:13.417Z,100283.19
2022-12-14T04:53:39.728Z,100293.94
2022-12-14T04:56:08.249Z,100293.94
2022-12-14T04:58:34.581Z,100288.19
2022-12-14T05:01:10.153Z,100285.97
2022-12-14T05:03:37.816Z,100285.25
2022-12-14T05:06:07.533Z,100283.78
2022-12-14T05:08:40.837Z,100278.75
2022-12-14T05:11:31.744Z,100277.25
2022-12-14T05:13:55.694Z,100274.31
2022-12-14T05:16:22.454Z,100272.13
2022-12-14T05:18:48.858Z,100270.63
2022-12-14T05:21:33.971Z,100270.63
2022-12-14T05:24:00.736Z,100264.16
2022-12-14T05:26:32.839Z,100259.81
2022-12-14T05:28:59.294Z,100264.06
2022-12-14T05:31:25.630Z,100254.72
2022-12-14T05:33:54.601Z,100253.28
2022-12-14T05:36:20.945Z,100260.63
2022-12-14T05:38:47.271Z,100248.38
2022-12-14T05:41:13.757Z,100244.09
2022-12-14T05:43:45.709Z,100239.06
2022-12-14T05:46:15.444Z,100237.69
2022-12-14T05:48:46.044Z,100230.50
2022-12-14T05:51:18.097Z,100221.81
2022-12-14T05:53:44.645Z,100219.66
2022-12-14T05:56:11.017Z,100211.72
2022-12-14T05:58:37.345Z,100213.13
2022-12-14T06:01:04.348Z,100208.78
2022-12-14T06:03:31.016Z,100210.91
2022-12-14T06:06:01.900Z,100214.44
2022-12-14T06:08:30.549Z,100202.94
2022-12-14T06:11:01.937Z,100210.13
2022-12-14T06:13:28.610Z,100213.66
2022-12-14T06:15:55.304Z,100215.78
2022-12-14T06:18:24.120Z,100211.50
2022-12-14T06:20:50.436Z,100212.22
2022-12-14T06:23:16.744Z,100211.41
2022-12-14T06:25:43.091Z,100205.75
2022-12-14T06:28:09.403Z,100205.81
2022-12-14T06:30:35.860Z,100207.72
2022-12-14T06:33:02.266Z,100204.03
2022-12-14T06:35:28.585Z,100207.50
2022-12-14T06:37:54.906Z,100198.88
2022-12-14T06:40:21.224Z,100193.06
2022-12-14T06:42:47.990Z,100203.72
2022-12-14T06:45:14.977Z,100203.97
2022-12-14T06:47:41.313Z,100195.72
2022-12-14T06:50:07.718Z,100194.25
2022-12-14T06:52:34.610Z,100186.81
2022-12-14T06:55:00.945Z,100186.00
2022-12-14T06:57:27.300Z,100184.50
2022-12-14T06:59:53.631Z,100188.94
2022-12-14T07:02:20.200Z,100188.94
2022-12-14T07:04:46.725Z,100183.84
2022-12-14T07:07:13.059Z,100190.13
2022-12-14T07:09:42.016Z,100179.66
2022-12-14T07:12:11.336Z,100182.91
2022-12-14T07:14:37.685Z,100176.97
2022-12-14T07:17:04.001Z,100171.47
2022-12-14T07:19:30.314Z,100173.06
2022-12-14T07:21:56.672Z,100167.31
2022-12-14T07:24:23.048Z,100150.16
2022-12-14T07:26:49.429Z,100157.28
2022-12-14T07:29:16.760Z,100162.88
2022-12-14T07:31:43.100Z,100162.81
2022-12-14T07:34:10.817Z,100145.50
2022-12-14T07:36:37.129Z,100143.31
2022-12-14T07:39:03.463Z,100139.66
2022-12-14T07:41:30.999Z,100141.81
2022-12-14T07:43:57.834Z,100145.34
2022-12-14T07:46:25.004Z,100131.03
2022-12-14T07:48:51.957Z,100136.13
2022-12-14T07:51:19.085Z,100136.94
2022-12-14T07:53:45.424Z,100136.69
2022-12-14T07:56:15.405Z,100138.28
2022-12-14T07:58:44.494Z,100155.41
2022-12-14T08:01:14.537Z,100139.59
2022-12-14T08:03:41.805Z,100144.56
2022-12-14T08:06:08.239Z,100135.91
2022-12-14T08:08:34.547Z,100138.88
2022-12-14T08:11:00.995Z,100148.13
2022-12-14T08:13:32.766Z,100151.06
2022-12-14T08:16:03.255Z,100147.25
2022-12-14T08:18:29.818Z,100140.88
2022-12-14T08:20:56.145Z,100147.16
2022-12-14T08:23:22.465Z,100137.41
2022-12-14T08:25:57.641Z,100138.34
2022-12-14T08:28:27.239Z,100146.16
2022-12-14T08:30:53.606Z,100132.09
2022-12-14T08:33:22.540Z,100136.13
2022-12-14T08:35:51.792Z,100130.16
2022-12-14T08:38:18.127Z,100129.22
2022-12-14T08:40:44.444Z,100117.88
2022-12-14T08:43:10.777Z,100123.09
2022-12-14T08:45:37.097Z,100121.16
2022-12-14T08:48:03.435Z,100122.75
2022-12-14T08:50:29.750Z,100119.44
2022-12-14T08:52:59.052Z,100123.69
2022-12-14T08:55:29.098Z,100119.41
2022-12-14T08:57:56.689Z,100123.69
2022-12-14T09:00:23.068Z,100118.53
2022-12-14T09:02:50.227Z,100114.84
2022-12-14T09:05:16.970Z,100109.16
2022-12-14T09:07:43.328Z,100108.41
2022-12-14T09:10:09.701Z,100108.91
2022-12-14T09:12:36.204Z,100115.84
2022-12-14T09:15:08.649Z,100116.53
2022-12-14T09:17:43.764Z,100115.63
2022-12-14T09:20:14.115Z,100114.78
2022-12-14T09:22:40.452Z,100113.16
2022-12-14T09:25:06.825Z,100094.63
2022-12-14T09:27:33.663Z,100101.00
2022-12-14T09:29:59.992Z,100097.28
2022-12-14T09:32:28.123Z,100091.66
2022-12-14T09:34:54.432Z,100095.91
2022-12-14T09:37:20.759Z,100093.25
2022-12-14T09:39:47.174Z,100087.47
2022-12-14T09:42:33.673Z,100081.72
2022-12-14T09:45:04.525Z,100075.47
2022-12-14T09:47:32.496Z,100071.19
2022-12-14T09:50:00.699Z,100069.09
2022-12-14T09:52:46.370Z,100071.91
2022-12-14T09:55:17.398Z,100059.41
2022-12-14T09:57:44.534Z,100061.88
2022-12-14T10:00:18.235Z,100052.75
2022-12-14T10:03:10.032Z,100050.88
2022-12-14T10:05:59.535Z,100048.16
2022-12-14T10:08:26.795Z,100043.88
2022-12-14T10:10:58.248Z,100042.38
2022-12-14T10:13:24.614Z,100046.69
2022-12-14T10:16:09.754Z,100040.94
2022-12-14T10:18:58.819Z,100037.38
2022-12-14T10:21:26.532Z,100030.72
2022-12-14T10:23:53.279Z,100026.34
2022-12-14T10:26:21.279Z,100027.09
2022-12-14T10:28:48.467Z,100032.22
2022-12-14T10:31:16.945Z,100029.41
2022-12-14T10:33:44.065Z,100026.47
2022-12-14T10:36:30.060Z,100030.78
2022-12-14T10:38:58.277Z,100016.44
2022-12-14T10:41:30.639Z,100012.25
2022-12-14T10:44:03.333Z,100007.81
2022-12-14T10:46:42.536Z,100007.69
2022-12-14T10:49:11.814Z,100006.25
2022-12-14T10:51:46.846Z,100005.47
2022-12-14T10:54:34.898Z,100004.69
2022-12-14T10:57:01.324Z,99996.59
2022-12-14T10:59:32.215Z,99992.19
2022-12-14T11:02:11.069Z,99993.03
2022-12-14T11:04:39.040Z,99990.09
2022-12-14T11:07:11.843Z,99985.88
2022-12-14T11:09:38.295Z,99976.44
2022-12-14T11:12:08.803Z,99974.19
2022-12-14T11:14:38.269Z,99966.22
2022-12-14T11:17:05.427Z,99966.22
2022-12-14T11:19:31.815Z,99965.56
2022-12-14T11:22:04.833Z,99960.28
2022-12-14T11:24:31.367Z,99967.50
2022-12-14T11:27:01.353Z,99949.97
2022-12-14T11:29:34.465Z,99948.66
2022-12-14T11:32:00.873Z,99946.88
2022-12-14T11:34:31.499Z,99952.19
2022-12-14T11:37:10.453Z,99952.13
2022-12-14T11:39:36.796Z,99949.88
2022-12-14T11:42:04.266Z,99953.28
2022-12-14T11:44:36.865Z,99950.91
2022-12-14T11:47:08.367Z,99960.97
2022-12-14T11:49:37.642Z,99955.81
2022-12-14T11:52:14.070Z,99955.56
2022-12-14T11:54:41.087Z,99954.25
2022-12-14T11:57:08.425Z,99955.69
2022-12-14T11:59:53.891Z,99939.41
2022-12-14T12:02:24.933Z,99943.84
2022-12-14T12:04:55.705Z,99939.88
2022-12-14T12:07:24.105Z,99941.25
2022-12-14T12:09:50.467Z,99932.06
2022-12-14T12:12:17.420Z,99940.53
2022-12-14T12:14:43.753Z,99938.28
2022-12-14T12:17:19.069Z,99933.00
2022-12-14T12:19:45.389Z,99931.44
2022-12-14T12:22:11.748Z,99925.59
2022-12-14T12:25:08.266Z,99928.03
2022-12-14T12:27:30.055Z,99927.88
2022-12-14T12:30:07.036Z,99921.50
2022-12-14T12:32:34.618Z,99911.97
2022-12-14T12:35:11.286Z,99909.84
2022-12-14T12:37:41.194Z,99907.22
2022-12-14T12:40:16.207Z,99904.53
2022-12-14T12:42:44.940Z,99906.44
2022-12-14T12:45:16.507Z,99907.88
2022-12-14T12:47:48.334Z,99910.09
2022-12-14T12:50:19.138Z,99910.09
2022-12-14T12:52:48.709Z,99902.72
2022-12-14T12:55:18.412Z,99904.22
2022-12-14T12:57:45.845Z,99901.41
2022-12-14T13:00:22.124Z,99898.84
2022-12-14T13:02:49.981Z,99888.88
2022-12-14T13:08:11.769Z,99883.38
2022-12-14T13:10:50.508Z,99882.16
2022-12-14T13:13:30.072Z,99884.41
2022-12-14T13:16:03.267Z,99893.16
2022-12-14T13:19:12.870Z,99881.22
2022-12-14T13:21:49.786Z,99890.94
2022-12-14T13:24:17.562Z,99880.50
2022-12-14T13:26:59.329Z,99875.66
2022-12-14T13:29:55.042Z,99870.31
2022-12-14T13:32:29.867Z,99870.25
2022-12-14T13:35:03.162Z,99865.25
2022-12-14T13:37:48.428Z,99875.28
2022-12-14T13:40:14.675Z,99865.91
2022-12-14T13:42:44.454Z,99866.69
2022-12-14T13:45:20.385Z,99877.66
2022-12-14T13:47:48.604Z,99865.22
2022-12-14T13:50:38.408Z,99869.63
2022-12-14T13:53:08.184Z,99867.03
2022-12-14T13:55:39.942Z,99861.47
2022-12-14T13:58:25.221Z,99864.06
2022-12-14T14:00:52.787Z,99861.66
2022-12-14T14:03:34.830Z,99852.34
2022-12-14T14:06:08.094Z,99842.94
2022-12-14T14:08:41.479Z,99847.00
2022-12-14T14:11:39.703Z,99849.38
2022-12-14T14:14:23.031Z,99844.53
2022-12-14T14:16:56.334Z,99846.78
2022-12-14T14:19:23.647Z,99834.78
2022-12-14T14:25:12.770Z,99832.28
2022-12-14T14:27:39.644Z,99832.09
2022-12-14T14:30:28.835Z,99834.16
2022-12-14T14:33:07.547Z,99817.63
2022-12-14T14:35:40.185Z,99834.84
2022-12-14T14:38:26.265Z,99822.59
2022-12-14T14:43:49.549Z,99826.47
2022-12-14T14:46:22.203Z,99827.22
2022-12-14T14:48:53.121Z,99826.69
2022-12-14T14:51:22.866Z,99827.13
2022-12-14T14:53:50.368Z,99821.47
2022-12-14T14:56:32.665Z,99818.53
2022-12-14T14:59:37.102Z,99819.22
2022-12-14T15:02:04.015Z,99814.28
2022-12-14T15:04:49.452Z,99824.41
2022-12-14T15:07:23.400Z,99818.53
2022-12-14T15:09:54.595Z,99820.09
2022-12-14T15:12:32.927Z,99831.81
2022-12-14T15:15:00.699Z,99829.00
2022-12-14T15:17:27.540Z,99826.09
2022-12-14T15:19:54.434Z,99825.69
2022-12-14T15:22:24.098Z,99823.47
2022-12-14T15:24:51.113Z,99820.75
2022-12-14T15:27:24.857Z,99823.78
2022-12-14T15:29:51.351Z,99815.72
2022-12-14T15:32:18.353Z,99821.47
2022-12-14T15:35:03.412Z,99824.34
2022-12-14T15:37:37.524Z,99821.44
2022-12-14T15:40:05.494Z,99821.59
2022-12-14T15:42:34.844Z,99825.97
2022-12-14T15:45:02.428Z,99823.59
2022-12-14T15:47:31.264Z,99825.03
2022-12-14T15:50:15.896Z,99821.47
2022-12-14T15:52:42.257Z,99825.25
2022-12-14T15:55:19.912Z,99814.59
2022-12-14T15:57:46.230Z,99815.31
2022-12-14T16:00:13.482Z,99806.00
2022-12-14T16:02:43.877Z,99804.31
2022-12-14T16:05:14.053Z,99814.34
2022-12-14T16:07:40.734Z,99805.22
2022-12-14T16:10:08.804Z,99804.63
2022-12-14T16:12:44.460Z,99807.66
2022-12-14T16:15:17.648Z,99804.94
2022-12-14T16:17:44.713Z,99802.69
2022-12-14T16:20:19.257Z,99804.75
2022-12-14T16:23:01.795Z,99804.63
2022-12-14T16:25:28.673Z,99802.81
2022-12-14T16:27:54.994Z,99801.63
2022-12-14T16:30:24.302Z,99798.50
2022-12-14T16:33:03.539Z,99800.19
2022-12-14T16:35:29.904Z,99801.13
2022-12-14T16:38:04.085Z,99806.25
2022-12-14T16:40:32.604Z,99808.84
2022-12-14T16:42:58.958Z,99806.91
2022-12-14T16:45:43.610Z,99815.25
2022-12-14T16:48:17.013Z,99814.16
2022-12-14T16:51:02.928Z,99812.06
2022-12-14T16:53:30.293Z,99813.22
2022-12-14T16:56:01.009Z,99811.22
2022-12-14T16:58:27.383Z,99812.66
2022-12-14T17:00:57.856Z,99817.16
2022-12-14T17:03:24.359Z,99808.84
2022-12-14T17:05:54.467Z,99802.44
2022-12-14T17:08:20.864Z,99810.72
2022-12-14T17:10:47.193Z,99810.78
2022-12-14T17:13:13.548Z,99816.03
2022-12-14T17:15:52.275Z,99814.09
2022-12-14T17:18:20.221Z,99816.66
2022-12-14T17:20:46.735Z,99811.81
2022-12-14T17:23:14.814Z,99810.78
2022-12-14T17:25:46.175Z,99809.03
2022-12-14T17:28:17.098Z,99819.38
2022-12-14T17:30:43.488Z,99817.88
2022-12-14T17:33:18.913Z,99813.38
2022-12-14T17:35:45.258Z,99815.41
2022-12-14T17:38:14.782Z,99818.19
2022-12-14T17:40:41.110Z,99819.91
2022-12-14T17:43:08.597Z,99811.19
2022-12-14T17:45:34.920Z,99818.16
2022-12-14T17:48:01.232Z,99820.03
2022-12-14T17:50:27.536Z,99820.97
2022-12-14T17:52:53.874Z,99820.00
2022-12-14T17:55:21.688Z,99827.53
2022-12-14T17:57:48.002Z,99827.03
2022-12-14T18:00:40.410Z,99827.16
2022-12-14T18:03:06.923Z,99833.03
2022-12-14T18:05:43.604Z,99829.50
2022-12-14T18:08:14.554Z,99825.22
2022-12-14T18:10:41.556Z,99820.19
2022-12-14T18:13:07.878Z,99817.31
2022-12-14T18:15:35.396Z,99818.00
2022-12-14T18:18:01.751Z,99820.88
2022-12-14T18:20:28.080Z,99815.78
2022-12-14T18:22:54.380Z,99810.63
2022-12-14T18:25:28.586Z,99817.88
2022-12-14T18:27:54.902Z,99815.03
2022-12-14T18:30:24.072Z,99802.13
2022-12-14T18:32:56.608Z,99810.75
2022-12-14T18:35:24.108Z,99816.59
2022-12-14T18:37:50.582Z,99812.25
2022-12-14T18:40:18.062Z,99819.47
2022-12-14T18:42:44.734Z,99818.75
2022-12-14T18:45:18.571Z,99820.88
2022-12-14T18:47:45.033Z,99821.53
2022-12-14T18:50:11.861Z,99820.78
2022-12-14T18:52:38.227Z,99815.00
2022-12-14T18:55:05.707Z,99823.63
2022-12-14T18:57:32.080Z,99825.06
2022-12-14T18:59:58.403Z,99820.78
2022-12-14T19:02:24.830Z,99826.63
2022-12-14T19:04:51.316Z,99826.69
2022-12-14T19:07:17.624Z,99827.28
2022-12-14T19:09:43.939Z,99826.50
2022-12-14T19:12:10.975Z,99841.00
2022-12-14T19:14:37.350Z,99832.50
2022-12-14T19:17:03.696Z,99836.91
2022-12-14T19:19:36.727Z,99845.53
2022-12-14T19:22:07.941Z,99837.41
2022-12-14T19:24:34.769Z,99835.25
2022-12-14T19:27:01.120Z,99826.75
2022-12-14T19:29:27.453Z,99826.00
2022-12-14T19:31:54.573Z,99824.34
2022-12-14T19:34:21.936Z,99828.81
2022-12-14T19:36:51.240Z,99829.00
2022-12-14T19:39:17.596Z,99832.41
2022-12-14T19:41:43.911Z,99834.94
2022-12-14T19:44:10.234Z,99831.31
2022-12-14T19:46:36.981Z,99831.59
2022-12-14T19:49:03.411Z,99838.38
2022-12-14T19:51:29.732Z,99839.28
2022-12-14T19:53:56.287Z,99840.06
2022-12-14T19:56:23.086Z,99835.94
2022-12-14T19:58:49.410Z,99842.41
2022-12-14T20:01:16.275Z,99834.41
2022-12-14T20:03:42.797Z,99833.72
2022-12-14T20:06:09.234Z,99840.25
2022-12-14T20:08:35.546Z,99842.25
2022-12-14T20:11:17.394Z,99844.50
2022-12-14T20:13:43.746Z,99840.75
2022-12-14T20:16:14.054Z,99843.84
2022-12-14T20:18:43.177Z,99846.72
2022-12-14T20:21:09.647Z,99848.94
2022-12-14T20:23:38.835Z,99850.38
2022-12-14T20:26:06.198Z,99859.28
2022-12-14T20:28:32.994Z,99851.69
2022-12-14T20:31:00.538Z,99862.63
2022-12-14T20:33:30.619Z,99863.34
2022-12-14T20:35:57.909Z,99856.13
2022-12-14T20:38:24.410Z,99858.09
2022-12-14T20:40:50.778Z,99858.25
2022-12-14T20:43:19.807Z,99858.66
2022-12-14T20:45:46.537Z,99862.53
2022-12-14T20:48:15.867Z,99854.06
2022-12-14T20:50:42.453Z,99848.34
2022-12-14T20:53:08.760Z,99854.13
2022-12-14T20:55:35.140Z,99849.81
2022-12-14T20:58:01.465Z,99856.22
2022-12-14T21:00:27.814Z,99854.06
2022-12-14T21:02:54.216Z,99859.06
2022-12-14T21:05:20.636Z,99851.03
2022-12-14T21:07:46.954Z,99856.66
2022-12-14T21:10:13.297Z,99857.28
2022-12-14T21:12:39.624Z,99852.91
2022-12-14T21:15:06.059Z,99859.34
2022-12-14T21:17:33.595Z,99862.16
2022-12-14T21:19:59.944Z,99864.22
2022-12-14T21:22:26.507Z,99866.38
2022-12-14T21:25:08.276Z,99874.28
2022-12-14T21:27:35.246Z,99875.72
2022-12-14T21:30:01.627Z,99869.97
2022-12-14T21:32:28.130Z,99866.44
2022-12-14T21:34:54.471Z,99866.44
2022-12-14T21:37:20.879Z,99859.22
2022-12-14T21:39:52.361Z,99869.97
2022-12-14T21:42:21.866Z,99866.31
2022-12-14T21:44:48.799Z,99864.84
2022-12-14T21:47:16.084Z,99861.19
2022-12-14T21:49:42.621Z,99861.78
2022-12-14T21:52:09.306Z,99861.72
2022-12-14T21:54:35.634Z,99868.03
2022-12-14T21:57:20.432Z,99871.56
2022-12-14T21:59:46.751Z,99878.03
2022-12-14T22:02:13.157Z,99883.06
2022-12-14T22:04:40.196Z,99887.34
2022-12-14T22:07:06.553Z,99878.00
2022-12-14T22:09:32.858Z,99883.75
2022-12-14T22:11:59.200Z,99880.19
2022-12-14T22:14:25.519Z,99881.66
2022-12-14T22:16:51.908Z,99876.59
2022-12-14T22:19:22.047Z,99880.88
2022-12-14T22:21:48.385Z,99883.69
2022-12-14T22:24:15.527Z,99887.22
2022-12-14T22:26:42.334Z,99890.03
2022-12-14T22:29:08.684Z,99891.44
2022-12-14T22:31:35.291Z,99892.84
2022-12-14T22:34:01.688Z,99897.13
2022-12-14T22:36:40.529Z,99904.31
2022-12-14T22:39:18.804Z,99901.25
2022-12-14T22:41:45.352Z,99902.81
2022-12-14T22:44:12.455Z,99889.91
2022-12-14T22:46:38.897Z,99895.03
2022-12-14T22:49:05.220Z,99900.13
2022-12-14T22:51:31.565Z,99891.50
2022-12-14T22:53:57.882Z,99882.28
2022-12-14T22:56:28.662Z,99885.28
2022-12-14T22:59:12.494Z,99876.66
2022-12-14T23:01:38.925Z,99883.84
2022-12-14T23:04:05.556Z,99885.22
2022-12-14T23:06:31.964Z,99890.97
2022-12-14T23:09:16.893Z,99890.25
2022-12-14T23:12:02.126Z,99903.16
2022-12-14T23:14:47.112Z,99912.50
2022-12-14T23:17:31.952Z,99909.69
2022-12-14T23:20:17.124Z,99912.56
2022-12-14T23:23:05.250Z,99910.41
2022-12-14T23:25:51.694Z,99905.41
2022-12-14T23:28:36.678Z,99915.31
2022-12-14T23:31:21.710Z,99911.63
2022-12-14T23:34:06.862Z,99903.81
2022-12-14T23:36:51.597Z,99914.56
2022-12-14T23:39:36.635Z,99917.38
2022-12-14T23:42:21.413Z,99917.31
2022-12-14T23:45:06.523Z,99925.19
2022-12-14T23:47:51.428Z,99919.44
2022-12-14T23:50:36.387Z,99925.91
2022-12-14T23:53:27.691Z,99921.63
2022-12-14T23:56:13.028Z,99916.66
2022-12-14T23:58:58.084Z,99922.38
